createdAt,value
2016-03-11T00:00:55.740Z,3.14
2016-03-11T00:01:55.758Z,3.16
2016-03-11T00:02:55.761Z,3.11
2016-03-11T00:03:55.779Z,3.13
2016-03-11T00:04:55.781Z,3.1
2016-03-11T00:05:55.785Z,3.04
2016-03-11T00:06:55.787Z,3.16
2016-03-11T00:07:55.805Z,3.1
2016-03-11T00:08:55.824Z,2.98
2016-03-11T00:09:55.811Z,3.08
2016-03-11T00:10:55.830Z,3.16
2016-03-11T00:11:55.864Z,3.03
2016-03-11T00:12:55.851Z,3.08
2016-03-11T00:13:55.869Z,3
2016-03-11T00:14:55.887Z,3.04
2016-03-11T00:15:55.890Z,3.07
2016-03-11T00:16:55.877Z,3
2016-03-11T00:17:55.895Z,3.07
2016-03-11T00:18:55.929Z,2.95
2016-03-11T00:19:55.932Z,2.89
2016-03-11T00:20:55.935Z,2.95
2016-03-11T00:21:55.922Z,3.04
2016-03-11T00:22:55.940Z,2.93
2016-03-11T00:23:55.943Z,2.9
2016-03-11T00:24:55.961Z,2.97
2016-03-11T00:25:55.979Z,2.92
2016-03-11T00:26:55.966Z,2.92
2016-03-11T00:27:56.001Z,2.92
2016-03-11T00:28:55.987Z,2.93
2016-03-11T00:29:56.021Z,2.89
2016-03-11T00:30:56.009Z,2.93
2016-03-11T00:31:56.057Z,2.98
2016-03-11T00:32:56.029Z,2.9
2016-03-11T00:33:56.063Z,2.95
2016-03-11T00:34:56.050Z,2.86
2016-03-11T00:35:56.069Z,2.86
2016-03-11T00:36:56.072Z,2.86
2016-03-11T00:37:56.090Z,2.86
2016-03-11T00:38:56.077Z,2.8
2016-03-11T00:39:56.111Z,2.85
2016-03-11T00:40:56.145Z,2.83
2016-03-11T00:41:56.101Z,2.86
2016-03-11T00:42:56.134Z,2.92
2016-03-11T00:43:56.122Z,2.89
2016-03-11T00:44:56.172Z,2.86
2016-03-11T00:45:56.142Z,2.93
2016-03-11T00:47:56.164Z,2.92
2016-03-11T00:48:56.182Z,2.82
2016-03-11T00:49:56.185Z,2.77
2016-03-11T00:50:56.203Z,2.68
2016-03-11T00:51:56.206Z,2.65
2016-03-11T00:52:56.209Z,2.64
2016-03-11T00:53:56.212Z,2.6
2016-03-11T00:54:56.230Z,2.68
2016-03-11T00:55:56.233Z,2.65
2016-03-11T00:56:56.251Z,2.6
2016-03-11T00:57:56.253Z,2.64
2016-03-11T00:58:56.256Z,2.67
2016-03-11T00:59:56.291Z,2.64
2016-03-11T01:00:56.277Z,2.64
2016-03-11T01:01:56.311Z,2.56
2016-03-11T01:02:56.314Z,2.61
2016-03-11T01:03:56.333Z,2.57
2016-03-11T01:04:56.366Z,2.47
2016-03-11T01:05:56.182Z,2.43
2016-03-11T01:06:56.324Z,2.44
2016-03-11T01:07:56.359Z,2.38
2016-03-11T01:08:56.362Z,2.39
2016-03-11T01:09:56.364Z,2.32
2016-03-11T01:10:56.382Z,2.26
2016-03-11T01:11:56.385Z,2.31
2016-03-11T01:12:56.403Z,2.31
2016-03-11T01:13:56.390Z,2.36
2016-03-11T01:14:56.393Z,2.32
2016-03-11T01:15:56.427Z,2.43
2016-03-11T01:16:56.445Z,2.44
2016-03-11T01:17:56.448Z,2.44
2016-03-11T01:18:56.498Z,2.35
2016-03-11T01:19:56.454Z,2.33
2016-03-11T01:20:56.473Z,2.31
2016-03-11T01:21:56.459Z,2.33
2016-03-11T01:22:56.477Z,2.29
2016-03-11T01:23:56.542Z,2.24
2016-03-11T01:24:56.639Z,2.31
2016-03-11T01:25:56.579Z,2.15
2016-03-11T01:27:10.614Z,2.15
2016-03-11T01:27:56.539Z,2.15
2016-03-11T01:28:56.525Z,2.18
2016-03-11T01:29:56.528Z,2.18
2016-03-11T01:30:56.547Z,2.22
2016-03-11T01:31:56.580Z,2.22
2016-03-11T01:32:56.598Z,2.18
2016-03-11T01:33:56.414Z,2.24
2016-03-11T01:34:56.572Z,2.18
2016-03-11T01:35:56.435Z,2.25
2016-03-11T01:36:56.453Z,2.14
2016-03-11T01:37:56.580Z,2.24
2016-03-11T01:38:56.631Z,2.25
2016-03-11T01:39:56.664Z,2.2
2016-03-11T01:40:56.651Z,2.24
2016-03-11T01:41:56.638Z,2.07
2016-03-11T01:42:56.640Z,2.13
2016-03-11T01:43:56.660Z,2.14
2016-03-11T01:44:56.756Z,2.22
2016-03-11T01:45:56.712Z,2.24
2016-03-11T01:46:56.699Z,2.15
2016-03-11T01:47:56.685Z,2.14
2016-03-11T01:48:56.688Z,2.15
2016-03-11T01:49:56.706Z,2.24
2016-03-11T01:50:56.726Z,2.22
2016-03-11T01:51:56.728Z,2.15
2016-03-11T01:52:56.746Z,2.08
2016-03-11T01:53:56.733Z,2.06
2016-03-11T01:54:56.782Z,2.08
2016-03-11T01:55:56.738Z,2.11
2016-03-11T01:56:56.773Z,2.14
2016-03-11T01:57:56.759Z,2.15
2016-03-11T01:58:56.789Z,2.24
2016-03-11T01:59:56.781Z,2.2
2016-03-11T02:00:56.772Z,2.18
2016-03-11T02:01:56.828Z,2.13
2016-03-11T02:02:56.773Z,2.2
2016-03-11T02:03:56.767Z,2.2
2016-03-11T02:04:56.766Z,2.11
2016-03-11T02:05:56.781Z,2.15
2016-03-11T02:06:56.795Z,2.1
2016-03-11T02:07:56.794Z,2.08
2016-03-11T02:08:56.778Z,2.14
2016-03-11T02:09:56.810Z,2.08
2016-03-11T02:10:56.796Z,2.06
2016-03-11T02:11:56.813Z,2.08
2016-03-11T02:12:56.814Z,2.13
2016-03-11T02:13:56.846Z,2.07
2016-03-11T02:14:56.849Z,2.11
2016-03-11T02:15:56.836Z,2.1
2016-03-11T02:16:56.854Z,2.13
2016-03-11T02:17:56.855Z,2.06
2016-03-11T02:18:56.858Z,2.13
2016-03-11T02:19:56.861Z,2.2
2016-03-11T02:20:56.911Z,2.24
2016-03-11T02:21:56.897Z,2.22
2016-03-11T02:22:56.900Z,2.17
2016-03-11T02:23:56.903Z,2.11
2016-03-11T02:24:56.922Z,2.04
2016-03-11T02:25:56.940Z,2.07
2016-03-11T02:26:56.927Z,1.99
2016-03-11T02:27:56.976Z,1.94
2016-03-11T02:28:56.963Z,1.99
2016-03-11T02:29:56.966Z,1.88
2016-03-11T02:30:56.953Z,1.97
2016-03-11T02:31:56.987Z,1.92
2016-03-11T02:32:56.990Z,1.95
2016-03-11T02:33:56.977Z,1.89
2016-03-11T02:34:56.979Z,1.89
2016-03-11T02:35:57.014Z,1.91
2016-03-11T02:36:57.016Z,1.87
2016-03-11T02:37:57.020Z,1.91
2016-03-11T02:38:57.037Z,2
2016-03-11T02:39:57.056Z,1.92
2016-03-11T02:40:57.043Z,1.88
2016-03-11T02:41:57.061Z,1.87
2016-03-11T02:42:57.064Z,1.77
2016-03-11T02:43:57.082Z,1.68
2016-03-11T02:44:57.085Z,1.66
2016-03-11T02:45:57.087Z,1.71
2016-03-11T02:46:57.090Z,1.7
2016-03-11T02:47:57.092Z,1.76
2016-03-11T02:48:57.111Z,1.76
2016-03-11T02:49:57.130Z,1.77
2016-03-11T02:50:57.132Z,1.74
2016-03-11T02:51:57.135Z,1.77
2016-03-11T02:52:57.137Z,1.66
2016-03-11T02:53:57.171Z,1.59
2016-03-11T02:54:57.158Z,1.66
2016-03-11T02:55:57.177Z,1.66
2016-03-11T02:56:57.179Z,1.62
2016-03-11T02:57:57.182Z,1.71
2016-03-11T02:58:57.185Z,1.62
2016-03-11T02:59:57.203Z,1.58
2016-03-11T03:00:57.207Z,1.67
2016-03-11T03:01:57.224Z,1.6
2016-03-11T03:02:57.227Z,1.63
2016-03-11T03:03:57.260Z,1.6
2016-03-11T03:04:57.247Z,1.63
2016-03-11T03:05:57.109Z,1.6
2016-03-11T03:06:57.253Z,1.67
2016-03-11T03:07:57.271Z,1.66
2016-03-11T03:08:57.306Z,1.59
2016-03-11T03:09:57.308Z,1.62
2016-03-11T03:10:57.279Z,1.62
2016-03-11T03:11:57.314Z,1.59
2016-03-11T03:12:57.300Z,1.59
2016-03-11T03:13:57.319Z,1.53
2016-03-11T03:14:57.337Z,1.63
2016-03-11T03:15:57.308Z,1.63
2016-03-11T03:16:57.374Z,1.63
2016-03-11T03:17:57.360Z,1.59
2016-03-11T03:18:57.348Z,1.6
2016-03-11T03:19:57.383Z,1.6
2016-03-11T03:20:57.369Z,1.6
2016-03-11T03:21:57.372Z,1.62
2016-03-11T03:22:57.421Z,1.59
2016-03-11T03:23:57.455Z,1.67
2016-03-11T03:24:57.411Z,1.62
2016-03-11T03:25:57.414Z,1.62
2016-03-11T03:26:57.432Z,1.67
2016-03-11T03:27:57.404Z,1.52
2016-03-11T03:28:57.453Z,1.52
2016-03-11T03:30:11.549Z,1.49
2016-03-11T03:30:57.473Z,1.53
2016-03-11T03:31:57.446Z,1.6
2016-03-11T03:32:57.463Z,1.68
2016-03-11T03:33:57.529Z,1.71
2016-03-11T03:34:57.500Z,1.77
2016-03-11T03:35:57.535Z,1.73
2016-03-11T03:36:57.506Z,1.66
2016-03-11T03:37:57.509Z,1.59
2016-03-11T03:38:57.527Z,1.68
2016-03-11T03:39:57.545Z,1.68
2016-03-11T03:40:57.532Z,1.73
2016-03-11T03:41:57.551Z,1.7
2016-03-11T03:42:57.662Z,1.7
2016-03-11T03:43:57.728Z,1.76
2016-03-11T03:44:57.559Z,1.73
2016-03-11T03:45:57.561Z,1.8
2016-03-11T03:46:57.642Z,1.74
2016-03-11T03:47:57.582Z,1.66
2016-03-11T03:48:57.600Z,1.66
2016-03-11T03:49:57.634Z,1.62
2016-03-11T03:50:57.637Z,1.66
2016-03-11T03:51:57.608Z,1.7
2016-03-11T03:52:57.627Z,1.67
2016-03-11T03:53:57.629Z,1.6
2016-03-11T03:54:57.647Z,1.56
2016-03-11T03:55:57.650Z,1.49
2016-03-11T03:56:57.653Z,1.53
2016-03-11T03:57:57.702Z,1.66
2016-03-11T03:58:57.674Z,1.63
2016-03-11T03:59:57.693Z,1.59
2016-03-11T04:00:57.696Z,1.6
2016-03-11T04:01:57.699Z,1.62
2016-03-11T04:02:57.701Z,1.71
2016-03-11T04:03:57.718Z,1.8
2016-03-11T04:04:57.738Z,1.71
2016-03-11T04:05:57.724Z,1.74
2016-03-11T04:06:57.727Z,1.76
2016-03-11T04:07:57.761Z,1.73
2016-03-11T04:08:57.764Z,1.7
2016-03-11T04:09:57.767Z,1.62
2016-03-11T04:10:57.769Z,1.55
2016-03-11T04:11:57.772Z,1.52
2016-03-11T04:12:57.806Z,1.49
2016-03-11T04:13:57.792Z,1.52
2016-03-11T04:14:57.811Z,1.4
2016-03-11T04:15:57.798Z,1.42
2016-03-11T04:16:57.831Z,1.37
2016-03-11T04:17:57.835Z,1.44
2016-03-11T04:18:57.822Z,1.49
2016-03-11T04:19:57.840Z,1.52
2016-03-11T04:20:57.858Z,1.52
2016-03-11T04:21:57.877Z,1.44
2016-03-11T04:22:57.864Z,1.49
2016-03-11T04:23:57.883Z,1.52
2016-03-11T04:24:57.885Z,1.55
2016-03-11T04:25:57.888Z,1.52
2016-03-11T04:26:57.905Z,1.28
2016-03-11T04:27:57.955Z,1.34
2016-03-11T04:28:57.943Z,1.34
2016-03-11T04:29:57.914Z,1.32
2016-03-11T04:30:57.948Z,1.34
2016-03-11T04:31:57.935Z,1.37
2016-03-11T04:32:57.954Z,1.35
2016-03-11T04:33:58.019Z,1.37
2016-03-11T04:34:57.959Z,1.31
2016-03-11T04:35:57.993Z,1.34
2016-03-11T04:36:57.979Z,1.28
2016-03-11T04:37:57.982Z,1.26
2016-03-11T04:38:58.032Z,1.28
2016-03-11T04:39:58.018Z,1.31
2016-03-11T04:40:58.068Z,1.34
2016-03-11T04:41:58.023Z,1.45
2016-03-11T04:42:58.042Z,1.28
2016-03-11T04:43:58.029Z,1.35
2016-03-11T04:44:58.111Z,1.37
2016-03-11T04:45:58.082Z,1.3
2016-03-11T04:46:58.054Z,1.23
2016-03-11T04:47:58.056Z,1.32
2016-03-11T04:48:58.058Z,1.3
2016-03-11T04:49:58.078Z,1.28
2016-03-11T04:50:58.095Z,1.22
2016-03-11T04:51:58.097Z,1.3
2016-03-11T04:52:58.101Z,1.24
2016-03-11T04:53:58.088Z,1.24
2016-03-11T04:54:58.138Z,1.17
2016-03-11T04:55:58.125Z,1.2
2016-03-11T04:56:58.127Z,1.2
2016-03-11T04:57:58.146Z,1.19
2016-03-11T04:58:58.149Z,1.22
2016-03-11T04:59:58.166Z,1.23
2016-03-11T05:00:58.153Z,1.2
2016-03-11T05:01:58.188Z,1.34
2016-03-11T05:02:58.205Z,1.19
2016-03-11T05:03:58.193Z,1.31
2016-03-11T05:04:58.195Z,1.35
2016-03-11T05:05:58.089Z,1.28
2016-03-11T05:06:58.222Z,1.3
2016-03-11T05:07:58.241Z,1.26
2016-03-11T05:08:58.228Z,1.28
2016-03-11T05:09:58.230Z,1.28
2016-03-11T05:10:58.233Z,1.34
2016-03-11T05:11:58.267Z,1.28
2016-03-11T05:12:58.254Z,1.22
2016-03-11T05:13:58.272Z,1.22
2016-03-11T05:14:58.260Z,1.23
2016-03-11T05:15:58.293Z,1.26
2016-03-11T05:16:58.281Z,1.24
2016-03-11T05:17:58.284Z,1.24
2016-03-11T05:18:58.301Z,1.2
2016-03-11T05:19:58.289Z,1.24
2016-03-11T05:20:58.306Z,1.2
2016-03-11T05:21:58.340Z,1.23
2016-03-11T05:22:58.328Z,1.22
2016-03-11T05:23:58.346Z,1.16
2016-03-11T05:24:58.333Z,1.28
2016-03-11T05:25:58.351Z,1.3
2016-03-11T05:26:58.370Z,1.31
2016-03-11T05:27:58.357Z,1.28
2016-03-11T05:28:58.391Z,1.3
2016-03-11T05:29:58.378Z,1.23
2016-03-11T05:30:58.411Z,1.22
2016-03-11T05:31:58.415Z,1.23
2016-03-11T05:32:58.402Z,1.12
2016-03-11T05:33:58.405Z,1.14
2016-03-11T05:34:58.438Z,1.12
2016-03-11T05:35:58.425Z,1.19
2016-03-11T05:36:58.460Z,1.24
2016-03-11T05:37:58.446Z,1.19
2016-03-11T05:38:58.449Z,1.16
2016-03-11T05:39:58.451Z,1.28
2016-03-11T05:40:58.471Z,1.2
2016-03-11T05:41:58.473Z,1.2
2016-03-11T05:42:58.476Z,1.2
2016-03-11T05:43:58.494Z,1.19
2016-03-11T05:44:58.496Z,1.26
2016-03-11T05:45:58.515Z,1.16
2016-03-11T05:46:58.517Z,1.3
2016-03-11T05:47:58.568Z,1.3
2016-03-11T05:48:58.538Z,1.3
2016-03-11T05:49:58.526Z,1.31
2016-03-11T05:50:58.543Z,1.3
2016-03-11T05:51:58.531Z,1.2
2016-03-11T05:52:58.424Z,1.23
2016-03-11T05:53:58.567Z,1.13
2016-03-11T05:54:58.601Z,1.2
2016-03-11T05:55:58.635Z,1.2
2016-03-11T05:56:58.592Z,1.34
2016-03-11T05:57:58.609Z,1.28
2016-03-11T05:58:58.597Z,1.32
2016-03-11T05:59:58.614Z,1.32
2016-03-11T06:00:58.633Z,1.34
2016-03-11T06:01:58.620Z,1.34
2016-03-11T06:02:58.701Z,1.37
2016-03-11T06:03:58.657Z,1.31
2016-03-11T06:04:58.660Z,1.31
2016-03-11T06:05:57.913Z,1.37
2016-03-11T06:06:58.650Z,1.37
2016-03-11T06:07:58.683Z,1.34
2016-03-11T06:08:58.686Z,1.28
2016-03-11T06:09:58.688Z,1.32
2016-03-11T06:10:58.691Z,1.45
2016-03-11T06:11:58.694Z,1.42
2016-03-11T06:12:58.727Z,1.4
2016-03-11T06:13:58.731Z,1.44
2016-03-11T06:14:58.749Z,1.3
2016-03-11T06:15:58.736Z,1.3
2016-03-11T06:16:58.738Z,1.48
2016-03-11T06:17:58.757Z,1.48
2016-03-11T06:18:58.759Z,1.6
2016-03-11T06:19:58.762Z,1.66
2016-03-11T06:20:58.781Z,1.74
2016-03-11T06:21:58.799Z,1.74
2016-03-11T06:22:58.802Z,1.92
2016-03-11T06:23:58.836Z,2
2016-03-11T06:24:58.823Z,1.87
2016-03-11T06:25:58.809Z,2.08
2016-03-11T06:26:58.828Z,2.07
2016-03-11T06:27:58.831Z,2.15
2016-03-11T06:28:58.833Z,2.11
2016-03-11T06:29:58.852Z,2.13
2016-03-11T06:30:58.855Z,2.14
2016-03-11T06:31:58.858Z,2.22
2016-03-11T06:32:58.735Z,2.15
2016-03-11T06:33:58.863Z,2.17
2016-03-11T06:34:58.896Z,2.17
2016-03-11T06:35:58.899Z,2.24
2016-03-11T06:36:58.949Z,2.29
2016-03-11T06:37:58.920Z,2.42
2016-03-11T06:38:58.938Z,2.44
2016-03-11T06:39:58.941Z,2.53
2016-03-11T06:40:58.960Z,2.53
2016-03-11T06:41:58.946Z,2.51
2016-03-11T06:42:58.965Z,2.56
2016-03-11T06:43:58.998Z,2.67
2016-03-11T06:44:59.001Z,2.68
2016-03-11T06:45:58.973Z,2.71
2016-03-11T06:46:58.991Z,2.8
2016-03-11T06:47:59.025Z,2.77
2016-03-11T06:48:58.996Z,2.87
2016-03-11T06:49:59.030Z,2.79
2016-03-11T06:50:59.064Z,2.95
2016-03-11T06:51:59.036Z,2.9
2016-03-11T06:52:59.039Z,2.97
2016-03-11T06:53:59.057Z,2.92
2016-03-11T06:54:59.076Z,3.04
2016-03-11T06:55:59.078Z,3.04
2016-03-11T06:56:59.081Z,3.14
2016-03-11T06:57:59.084Z,3.16
2016-03-11T06:58:59.102Z,3.23
2016-03-11T06:59:59.104Z,3.25
2016-03-11T07:00:59.123Z,3.29
2016-03-11T07:01:59.109Z,3.44
2016-03-11T07:02:59.144Z,3.55
2016-03-11T07:03:59.146Z,3.73
2016-03-11T07:04:59.133Z,3.7
2016-03-11T07:05:59.152Z,3.86
2016-03-11T07:06:59.186Z,3.96
2016-03-11T07:07:59.172Z,4.12
2016-03-11T07:08:59.207Z,4.2
2016-03-11T07:09:59.194Z,4.2
2016-03-11T07:10:59.212Z,4.53
2016-03-11T07:11:59.215Z,4.6
2016-03-11T07:12:59.218Z,4.71
2016-03-11T07:13:59.205Z,4.84
2016-03-11T07:14:59.223Z,4.89
2016-03-11T07:15:59.257Z,5.08
2016-03-11T07:16:59.243Z,5.26
2016-03-11T07:17:59.278Z,5.3
2016-03-11T07:18:59.265Z,5.35
2016-03-11T07:19:59.299Z,5.48
2016-03-11T07:20:59.301Z,5.54
2016-03-11T07:21:59.304Z,5.83
2016-03-11T07:22:59.338Z,5.98
2016-03-11T07:23:59.341Z,6.05
2016-03-11T07:24:59.343Z,6.28
2016-03-11T07:25:59.409Z,6.35
2016-03-11T07:26:59.348Z,6.38
2016-03-11T07:27:59.383Z,6.46
2016-03-11T07:28:59.401Z,6.44
2016-03-11T07:29:59.373Z,6.51
2016-03-11T07:30:59.406Z,6.64
2016-03-11T07:31:59.425Z,6.79
2016-03-11T07:32:59.443Z,7.02
2016-03-11T07:33:59.461Z,7.2
2016-03-11T07:34:59.480Z,7.42
2016-03-11T07:35:59.466Z,7.57
2016-03-11T07:36:59.485Z,7.79
2016-03-11T07:37:59.488Z,7.88
2016-03-11T07:38:59.522Z,8.01
2016-03-11T07:39:59.540Z,8.13
2016-03-11T07:40:59.527Z,8.27
2016-03-11T07:41:59.529Z,8.38
2016-03-11T07:42:59.564Z,8.28
2016-03-11T07:43:59.582Z,8.33
2016-03-11T07:44:59.569Z,8.19
2016-03-11T07:45:59.619Z,8.1
2016-03-11T07:46:59.605Z,8.37
2016-03-11T07:47:59.640Z,8.69
2016-03-11T07:48:59.626Z,8.66
2016-03-11T07:49:59.646Z,8.81
2016-03-11T07:50:59.648Z,9.25
2016-03-11T07:51:59.682Z,9.23
2016-03-11T07:52:59.684Z,9.23
2016-03-11T07:53:59.734Z,9.1
2016-03-11T07:54:59.751Z,9.21
2016-03-11T07:55:59.739Z,9.34
2016-03-11T07:56:59.742Z,9.54
2016-03-11T07:57:59.760Z,9.64
2016-03-11T07:58:59.778Z,9.84
2016-03-11T07:59:59.797Z,9.68
2016-03-11T08:00:59.862Z,9.83
2016-03-11T08:01:59.864Z,9.91
2016-03-11T08:02:59.837Z,10.02
2016-03-11T08:03:59.855Z,10.25
2016-03-11T08:04:59.717Z,10.33
2016-03-11T08:05:59.875Z,10.04
2016-03-11T08:06:59.909Z,9.94
2016-03-11T08:07:59.928Z,10.15
2016-03-11T08:08:59.962Z,10.3
2016-03-11T08:09:59.964Z,10.44
2016-03-11T08:10:59.967Z,10.4
2016-03-11T08:12:00.002Z,10.41
2016-03-11T08:13:00.005Z,10.48
2016-03-11T08:14:00.007Z,10.35
2016-03-11T08:15:00.041Z,10.22
2016-03-11T08:16:00.059Z,10.33
2016-03-11T08:17:00.093Z,10.57
2016-03-11T08:18:00.080Z,11.14
2016-03-11T08:19:00.099Z,11.26
2016-03-11T08:20:00.116Z,11.55
2016-03-11T08:21:00.151Z,11.12
2016-03-11T08:22:00.341Z,11.07
2016-03-11T08:23:00.187Z,10.96
2016-03-11T08:24:00.221Z,10.94
2016-03-11T08:25:00.192Z,10.96
2016-03-11T08:26:00.226Z,11.17
2016-03-11T08:27:00.229Z,11.69
2016-03-11T08:28:00.231Z,11.97
2016-03-11T08:29:00.265Z,11.95
2016-03-11T08:30:00.284Z,11.8
2016-03-11T08:31:00.334Z,11.5
2016-03-11T08:32:00.305Z,11.43
2016-03-11T08:33:00.339Z,11.26
2016-03-11T08:34:00.342Z,11.32
2016-03-11T08:35:00.359Z,11.4
2016-03-11T08:36:00.378Z,11.63
2016-03-11T08:37:00.411Z,11.75
2016-03-11T08:38:00.447Z,11.72
2016-03-11T08:39:00.449Z,11.75
2016-03-11T08:40:00.467Z,11.8
2016-03-11T08:41:00.455Z,11.75
2016-03-11T08:42:00.472Z,11.54
2016-03-11T08:43:00.522Z,11.57
2016-03-11T08:44:00.524Z,11.43
2016-03-11T08:45:00.636Z,11.33
2016-03-11T08:46:00.733Z,11.43
2016-03-11T08:47:00.595Z,11.6
2016-03-11T08:48:00.582Z,11.69
2016-03-11T08:49:01.272Z,11.57
2016-03-11T08:50:00.635Z,11.66
2016-03-11T08:51:00.638Z,11.69
2016-03-11T08:52:00.655Z,11.62
2016-03-11T08:53:00.674Z,11.88
2016-03-11T08:54:00.692Z,12.28
2016-03-11T08:55:00.710Z,12.6
2016-03-11T08:56:00.713Z,12.78
2016-03-11T08:57:00.731Z,13.03
2016-03-11T08:58:00.765Z,13.46
2016-03-11T08:59:00.768Z,13.7
2016-03-11T09:00:00.818Z,13.78
2016-03-11T09:01:00.820Z,14
2016-03-11T09:02:00.838Z,14.14
2016-03-11T09:03:00.842Z,14.25
2016-03-11T09:04:00.875Z,14.32
2016-03-11T09:05:00.893Z,14.35
2016-03-11T09:06:00.942Z,14.6
2016-03-11T09:07:00.914Z,14.58
2016-03-11T09:08:00.948Z,14.33
2016-03-11T09:09:00.810Z,14.59
2016-03-11T09:10:00.985Z,14.35
2016-03-11T09:11:01.003Z,14.32
2016-03-11T09:12:01.006Z,14.18
2016-03-11T09:13:01.071Z,14.14
2016-03-11T09:14:01.058Z,14
2016-03-11T09:15:01.092Z,14.36
2016-03-11T09:16:01.095Z,14.48
2016-03-11T09:17:01.113Z,14.44
2016-03-11T09:18:01.132Z,14.4
2016-03-11T09:19:01.165Z,14.08
2016-03-11T09:20:01.184Z,14
2016-03-11T09:21:01.187Z,13.83
2016-03-11T09:22:01.235Z,13.77
2016-03-11T09:23:01.238Z,13.83
2016-03-11T09:24:01.273Z,14.04
2016-03-11T09:25:01.276Z,14.32
2016-03-11T09:26:01.325Z,13.99
2016-03-11T09:27:01.312Z,13.86
2016-03-11T09:28:01.346Z,13.93
2016-03-11T09:29:01.365Z,14.12
2016-03-11T09:30:01.414Z,14.14
2016-03-11T09:31:01.401Z,14.03
2016-03-11T09:32:01.404Z,13.9
2016-03-11T09:33:01.422Z,13.81
2016-03-11T09:34:01.471Z,13.81
2016-03-11T09:35:01.490Z,14.03
2016-03-11T09:36:01.492Z,14.23
2016-03-11T09:37:01.526Z,14.3
2016-03-11T09:38:01.529Z,14.3
2016-03-11T09:39:01.579Z,14.23
2016-03-11T09:40:01.566Z,14.48
2016-03-11T09:41:01.600Z,14.18
2016-03-11T09:42:01.602Z,13.93
2016-03-11T09:43:01.636Z,13.87
2016-03-11T09:44:01.655Z,13.77
2016-03-11T09:45:01.688Z,13.7
2016-03-11T09:46:01.691Z,13.67
2016-03-11T09:47:01.710Z,13.93
2016-03-11T09:48:01.727Z,13.93
2016-03-11T09:49:01.762Z,13.95
2016-03-11T09:50:01.779Z,14.2
2016-03-11T09:51:01.783Z,14.51
2016-03-11T09:52:01.802Z,14.43
2016-03-11T09:53:01.819Z,14.6
2016-03-11T09:54:01.869Z,14.96
2016-03-11T09:55:01.872Z,15.27
2016-03-11T09:56:01.890Z,15.25
2016-03-11T09:57:01.923Z,15.47
2016-03-11T09:58:01.927Z,15.49
2016-03-11T09:59:01.945Z,15.58
2016-03-11T10:00:01.963Z,15.52
2016-03-11T10:01:01.997Z,15.35
2016-03-11T10:02:02.015Z,15.11
2016-03-11T10:03:02.034Z,14.89
2016-03-11T10:04:02.052Z,14.91
2016-03-11T10:05:02.070Z,14.84
2016-03-11T10:06:02.089Z,14.63
2016-03-11T10:07:02.113Z,14.6
2016-03-11T10:08:02.131Z,14.6
2016-03-11T10:09:02.181Z,14.84
2016-03-11T10:10:02.168Z,14.78
2016-03-11T10:11:02.170Z,14.62
2016-03-11T10:12:02.220Z,14.29
2016-03-11T10:13:02.238Z,14.29
2016-03-11T10:14:02.273Z,14.47
2016-03-11T10:15:02.259Z,14.33
2016-03-11T10:16:02.324Z,14.44
2016-03-11T10:17:02.312Z,14.65
2016-03-11T10:18:02.175Z,14.54
2016-03-11T10:19:02.348Z,14.47
2016-03-11T10:20:02.350Z,14.54
2016-03-11T10:21:02.386Z,14.73
2016-03-11T10:22:02.419Z,14.84
2016-03-11T10:23:02.405Z,15.04
2016-03-11T10:24:02.455Z,15.35
2016-03-11T10:25:02.458Z,15.52
2016-03-11T10:26:02.477Z,15.35
2016-03-11T10:27:02.510Z,15.18
2016-03-11T10:28:02.529Z,15.37
2016-03-11T10:29:02.546Z,15.68
2016-03-11T10:30:02.581Z,15.82
2016-03-11T10:31:02.615Z,16.02
2016-03-11T10:32:02.617Z,15.86
2016-03-11T10:33:02.636Z,15.9
2016-03-11T10:34:02.638Z,16.04
2016-03-11T10:35:02.673Z,15.94
2016-03-11T10:36:02.690Z,16.12
2016-03-11T10:37:02.709Z,16.13
2016-03-11T10:38:02.728Z,16.09
2016-03-11T10:39:02.776Z,16.24
2016-03-11T10:40:02.765Z,16.09
2016-03-11T10:41:02.782Z,15.86
2016-03-11T10:42:02.816Z,15.84
2016-03-11T10:43:02.866Z,15.88
2016-03-11T10:44:02.837Z,15.97
2016-03-11T10:45:02.887Z,15.95
2016-03-11T10:46:02.889Z,16.09
2016-03-11T10:47:02.940Z,16
2016-03-11T10:48:02.942Z,16.01
2016-03-11T10:49:02.960Z,16.1
2016-03-11T10:50:02.978Z,16.42
2016-03-11T10:51:02.997Z,16.57
2016-03-11T10:52:03.047Z,16.61
2016-03-11T10:53:03.033Z,16.56
2016-03-11T10:54:03.083Z,16.64
2016-03-11T10:55:03.070Z,16.43
2016-03-11T10:56:03.088Z,16.32
2016-03-11T10:57:03.138Z,16.31
2016-03-11T10:58:03.140Z,16.36
2016-03-11T10:59:03.175Z,16.32
2016-03-11T11:00:03.193Z,16.05
2016-03-11T11:01:03.196Z,16.09
2016-03-11T11:02:03.260Z,16.13
2016-03-11T11:03:03.248Z,15.91
2016-03-11T11:04:03.282Z,15.98
2016-03-11T11:05:03.277Z,16.04
2016-03-11T11:06:03.265Z,15.75
2016-03-11T11:07:03.300Z,15.62
2016-03-11T11:08:03.288Z,15.42
2016-03-11T11:09:03.322Z,15.22
2016-03-11T11:10:03.330Z,15.29
2016-03-11T11:11:03.312Z,15.19
2016-03-11T11:12:03.324Z,15.04
2016-03-11T11:13:03.354Z,14.89
2016-03-11T11:14:03.351Z,15.07
2016-03-11T11:15:03.381Z,15.06
2016-03-11T11:16:03.429Z,14.85
2016-03-11T11:17:03.444Z,14.69
2016-03-11T11:18:03.430Z,14.33
2016-03-11T11:19:03.462Z,14.35
2016-03-11T11:20:03.479Z,14.32
2016-03-11T11:21:03.481Z,14.08
2016-03-11T11:22:03.514Z,13.97
2016-03-11T11:23:03.531Z,13.87
2016-03-11T11:24:03.393Z,13.99
2016-03-11T11:25:03.567Z,13.86
2016-03-11T11:26:03.570Z,13.86
2016-03-11T11:27:03.602Z,13.86
2016-03-11T11:28:03.620Z,13.86
2016-03-11T11:29:03.623Z,13.87
2016-03-11T11:30:03.656Z,13.79
2016-03-11T11:31:03.691Z,13.86
2016-03-11T11:32:03.709Z,13.87
2016-03-11T11:33:03.711Z,13.93
2016-03-11T11:34:03.715Z,13.85
2016-03-11T11:35:03.732Z,13.86
2016-03-11T11:36:03.937Z,13.71
2016-03-11T11:37:03.785Z,13.53
2016-03-11T11:38:03.787Z,13.46
2016-03-11T11:39:03.853Z,13.33
2016-03-11T11:40:03.839Z,13.33
2016-03-11T11:41:03.826Z,13.28
2016-03-11T11:42:03.861Z,13.22
2016-03-11T11:43:03.878Z,13.28
2016-03-11T11:44:03.913Z,13.35
2016-03-11T11:45:03.916Z,13.31
2016-03-11T11:46:03.980Z,13.33
2016-03-11T11:47:03.999Z,13.35
2016-03-11T11:48:03.955Z,13
2016-03-11T11:49:04.004Z,12.87
2016-03-11T11:50:04.007Z,12.95
2016-03-11T11:51:04.025Z,12.95
2016-03-11T11:52:04.044Z,12.91
2016-03-11T11:53:04.046Z,13
2016-03-11T11:54:04.080Z,12.95
2016-03-11T11:55:04.083Z,12.91
2016-03-11T11:56:04.102Z,12.95
2016-03-11T11:57:04.135Z,12.95
2016-03-11T11:58:04.138Z,13.03
2016-03-11T11:59:04.172Z,12.93
2016-03-11T12:00:04.237Z,13.03
2016-03-11T12:01:04.209Z,12.95
2016-03-11T12:02:04.212Z,12.91
2016-03-11T12:03:04.230Z,12.94
2016-03-11T12:04:04.232Z,13.01
2016-03-11T12:05:04.266Z,13.09
2016-03-11T12:06:04.284Z,12.94
2016-03-11T12:07:04.334Z,12.62
2016-03-11T12:08:04.306Z,12.55
2016-03-11T12:09:04.355Z,12.45
2016-03-11T12:10:04.358Z,12.57
2016-03-11T12:11:04.361Z,12.61
2016-03-11T12:12:04.378Z,12.72
2016-03-11T12:13:04.398Z,12.61
2016-03-11T12:14:04.415Z,12.78
2016-03-11T12:15:04.434Z,12.75
2016-03-11T12:16:04.452Z,12.6
2016-03-11T12:17:04.486Z,12.68
2016-03-11T12:18:04.473Z,12.58
2016-03-11T12:19:04.491Z,12.58
2016-03-11T12:20:04.510Z,12.57
2016-03-11T12:21:04.544Z,12.67
2016-03-11T12:22:04.547Z,12.75
2016-03-11T12:23:04.580Z,12.78
2016-03-11T12:24:04.567Z,12.91
2016-03-11T12:25:04.586Z,12.94
2016-03-11T12:26:04.604Z,12.95
2016-03-11T12:27:04.622Z,13.16
2016-03-11T12:28:04.702Z,13.35
2016-03-11T12:29:04.659Z,13.5
2016-03-11T12:30:04.724Z,13.67
2016-03-11T12:31:04.711Z,13.81
2016-03-11T12:32:04.713Z,13.79
2016-03-11T12:33:04.748Z,13.99
2016-03-11T12:34:04.751Z,13.99
2016-03-11T12:35:04.785Z,13.93
2016-03-11T12:36:04.787Z,13.99
2016-03-11T12:37:04.821Z,13.95
2016-03-11T12:38:04.854Z,14.1
2016-03-11T12:39:04.842Z,14.26
2016-03-11T12:40:04.860Z,14
2016-03-11T12:41:04.878Z,14.11
2016-03-11T12:42:04.912Z,14.04
2016-03-11T12:43:04.774Z,14.04
2016-03-11T12:44:04.918Z,14.11
2016-03-11T12:45:04.983Z,14.17
2016-03-11T12:46:04.955Z,14.25
2016-03-11T12:47:04.989Z,14.18
2016-03-11T12:48:05.006Z,14.3
2016-03-11T12:49:05.056Z,14.3
2016-03-11T12:50:05.044Z,14.15
2016-03-11T12:51:05.078Z,14.11
2016-03-11T12:52:05.064Z,14.03
2016-03-11T12:53:05.083Z,13.87
2016-03-11T12:54:05.148Z,13.9
2016-03-11T12:55:05.119Z,13.78
2016-03-11T12:56:05.138Z,13.77
2016-03-11T12:57:05.156Z,13.6
2016-03-11T12:58:05.190Z,13.54
2016-03-11T12:59:05.193Z,13.3
2016-03-11T13:00:05.210Z,13.2
2016-03-11T13:01:05.229Z,13.08
2016-03-11T13:02:05.263Z,13.01
2016-03-11T13:03:05.281Z,12.98
2016-03-11T13:04:05.284Z,12.91
2016-03-11T13:05:05.318Z,12.94
2016-03-11T13:06:05.321Z,12.85
2016-03-11T13:07:05.323Z,12.79
2016-03-11T13:08:05.357Z,12.76
2016-03-11T13:09:05.360Z,12.62
2016-03-11T13:10:05.395Z,12.68
2016-03-11T13:11:05.412Z,12.61
2016-03-11T13:12:05.415Z,12.72
2016-03-11T13:13:05.449Z,12.58
2016-03-11T13:14:05.451Z,12.65